TimeEDT,TemperatureF,Dew PointF,Humidity,Sea Level PressureIn,VisibilityMPH,Wind Direction,Wind SpeedMPH,Gust SpeedMPH,PrecipitationIn,Events,Conditions,WindDirDegrees,DateUTC
12:52 AM,48.0,39.9,74,29.50,10.0,Calm,Calm,-,N/A,,Overcast,0,2012-11-01 04:52:00
1:07 AM,48.2,39.2,71,29.49,10.0,Calm,Calm,-,N/A,,Overcast,0,2012-11-01 05:07:00
1:47 AM,48.2,39.2,71,29.48,10.0,Calm,Calm,-,N/A,,Overcast,0,2012-11-01 05:47:00
1:52 AM,48.0,39.0,71,29.49,10.0,Calm,Calm,-,N/A,,Overcast,0,2012-11-01 05:52:00
2:52 AM,46.0,39.9,79,29.49,10.0,Calm,Calm,-,N/A,,Overcast,0,2012-11-01 06:52:00
3:52 AM,46.0,39.0,76,29.49,10.0,Calm,Calm,-,N/A,,Overcast,0,2012-11-01 07:52:00
4:31 AM,46.4,37.4,71,29.47,10.0,West,3.5,-,N/A,,Overcast,270,2012-11-01 08:31:00
4:52 AM,46.0,37.9,73,29.49,10.0,East,3.5,-,N/A,,Overcast,90,2012-11-01 08:52:00
5:52 AM,43.0,37.0,80,29.48,10.0,Calm,Calm,-,N/A,,Mostly Cloudy,0,2012-11-01 09:52:00
6:26 AM,44.6,37.4,76,29.47,10.0,WSW,3.5,-,N/A,,Mostly Cloudy,250,2012-11-01 10:26:00
6:42 AM,44.6,37.4,76,29.47,10.0,Calm,Calm,-,N/A,,Mostly Cloudy,0,2012-11-01 10:42:00
6:52 AM,45.0,36.0,71,29.49,10.0,WSW,3.5,-,N/A,,Mostly Cloudy,250,2012-11-01 10:52:00
7:32 AM,44.6,35.6,71,29.48,10.0,SW,3.5,-,N/A,,Overcast,230,2012-11-01 11:32:00
7:52 AM,45.0,35.1,68,29.50,10.0,Calm,Calm,-,N/A,,Overcast,0,2012-11-01 11:52:00
8:52 AM,45.0,36.0,71,29.51,10.0,WSW,3.5,-,N/A,,Overcast,250,2012-11-01 12:52:00
9:52 AM,45.0,35.1,68,29.51,10.0,WSW,3.5,-,N/A,,Overcast,240,2012-11-01 13:52:00
10:09 AM,44.6,35.6,71,29.49,10.0,Calm,Calm,-,N/A,,Overcast,0,2012-11-01 14:09:00
10:52 AM,45.0,36.0,71,29.51,10.0,Calm,Calm,-,N/A,,Overcast,0,2012-11-01 14:52:00
11:52 AM,46.9,37.0,68,29.50,10.0,South,3.5,-,N/A,,Scattered Clouds,190,2012-11-01 15:52:00
12:52 PM,48.0,36.0,63,29.49,10.0,Variable,3.5,-,N/A,,Mostly Cloudy,0,2012-11-01 16:52:00
1:52 PM,48.9,35.1,59,29.47,10.0,SW,4.6,-,N/A,,Overcast,230,2012-11-01 17:52:00
2:52 PM,48.0,35.1,61,29.47,10.0,SW,5.8,-,N/A,,Overcast,230,2012-11-01 18:52:00
3:52 PM,46.9,35.1,63,29.48,10.0,SW,4.6,-,N/A,,Mostly Cloudy,220,2012-11-01 19:52:00
4:52 PM,46.9,36.0,66,29.49,10.0,Calm,Calm,-,N/A,,Overcast,0,2012-11-01 20:52:00
5:52 PM,46.0,36.0,68,29.50,10.0,Calm,Calm,-,N/A,,Overcast,0,2012-11-01 21:52:00
6:52 PM,46.0,37.0,71,29.51,10.0,Calm,Calm,-,N/A,,Overcast,0,2012-11-01 22:52:00
7:52 PM,46.0,37.0,71,29.51,10.0,Calm,Calm,-,N/A,,Overcast,0,2012-11-01 23:52:00
8:52 PM,45.0,37.0,74,29.50,10.0,Calm,Calm,-,N/A,,Overcast,0,2012-11-02 00:52:00
9:52 PM,45.0,37.9,76,29.51,10.0,Calm,Calm,-,N/A,,Overcast,0,2012-11-02 01:52:00
10:35 PM,44.6,39.2,81,29.49,10.0,Calm,Calm,-,N/A,,Overcast,0,2012-11-02 02:35:00
10:52 PM,44.1,39.0,82,29.51,10.0,Calm,Calm,-,N/A,,Overcast,0,2012-11-02 02:52:00
11:40 PM,44.6,39.2,81,29.49,10.0,Calm,Calm,-,0.00,Rain,Light Rain,0,2012-11-02 03:40:00
11:52 PM,44.1,39.0,82,29.51,10.0,Calm,Calm,-,0.00,,Overcast,0,2012-11-02 03:52:00